sensor_id;sensor_type;location;lat;lon;timestamp;P1;durP1;ratioP1;P2;durP2;ratioP2
43998;SDS011;51319;52.162;5.302;2024-01-11T00:00:53;25.60;;;11.85;;
43998;SDS011;51319;52.162;5.302;2024-01-11T00:03:23;31.13;;;13.35;;
43998;SDS011;51319;52.162;5.302;2024-01-11T00:05:50;38.97;;;15.95;;
43998;SDS011;51319;52.162;5.302;2024-01-11T00:08:18;41.28;;;18.50;;
43998;SDS011;51319;52.162;5.302;2024-01-11T00:10:45;50.40;;;21.33;;
43998;SDS011;51319;52.162;5.302;2024-01-11T00:13:13;59.25;;;22.95;;
43998;SDS011;51319;52.162;5.302;2024-01-11T00:15:40;47.15;;;19.60;;
43998;SDS011;51319;52.162;5.302;2024-01-11T00:18:08;39.35;;;17.95;;
43998;SDS011;51319;52.162;5.302;2024-01-11T00:20:35;32.53;;;15.07;;
43998;SDS011;51319;52.162;5.302;2024-01-11T00:23:02;37.75;;;14.05;;
43998;SDS011;51319;52.162;5.302;2024-01-11T00:25:29;31.40;;;14.32;;
43998;SDS011;51319;52.162;5.302;2024-01-11T00:27:57;39.72;;;16.88;;
43998;SDS011;51319;52.162;5.302;2024-01-11T00:30:25;31.13;;;14.23;;
43998;SDS011;51319;52.162;5.302;2024-01-11T00:32:54;27.42;;;14.15;;
43998;SDS011;51319;52.162;5.302;2024-01-11T00:35:22;29.35;;;15.23;;
43998;SDS011;51319;52.162;5.302;2024-01-11T00:37:49;27.27;;;13.93;;
43998;SDS011;51319;52.162;5.302;2024-01-11T00:40:17;27.10;;;13.23;;
43998;SDS011;51319;52.162;5.302;2024-01-11T00:42:44;27.90;;;12.63;;
43998;SDS011;51319;52.162;5.302;2024-01-11T00:45:11;26.25;;;13.18;;
43998;SDS011;51319;52.162;5.302;2024-01-11T00:47:40;27.77;;;14.15;;
43998;SDS011;51319;52.162;5.302;2024-01-11T00:50:07;27.80;;;12.68;;
43998;SDS011;51319;52.162;5.302;2024-01-11T00:52:36;33.13;;;13.07;;
43998;SDS011;51319;52.162;5.302;2024-01-11T00:55:05;30.98;;;13.93;;
43998;SDS011;51319;52.162;5.302;2024-01-11T00:57:33;26.17;;;12.40;;
43998;SDS011;51319;52.162;5.302;2024-01-11T01:00:00;27.05;;;13.10;;
43998;SDS011;51319;52.162;5.302;2024-01-11T01:02:27;24.95;;;12.13;;
43998;SDS011;51319;52.162;5.302;2024-01-11T01:04:54;27.17;;;12.63;;
43998;SDS011;51319;52.162;5.302;2024-01-11T01:07:21;29.00;;;13.73;;
43998;SDS011;51319;52.162;5.302;2024-01-11T01:09:49;27.40;;;12.48;;
43998;SDS011;51319;52.162;5.302;2024-01-11T01:12:16;47.00;;;13.32;;
43998;SDS011;51319;52.162;5.302;2024-01-11T01:14:43;25.38;;;13.10;;
43998;SDS011;51319;52.162;5.302;2024-01-11T01:17:11;28.10;;;12.90;;
43998;SDS011;51319;52.162;5.302;2024-01-11T01:19:42;30.15;;;13.98;;
43998;SDS011;51319;52.162;5.302;2024-01-11T01:22:10;31.42;;;13.77;;
43998;SDS011;51319;52.162;5.302;2024-01-11T01:24:38;33.92;;;12.73;;
43998;SDS011;51319;52.162;5.302;2024-01-11T01:27:06;31.17;;;13.70;;
43998;SDS011;51319;52.162;5.302;2024-01-11T01:29:33;31.30;;;13.05;;
43998;SDS011;51319;52.162;5.302;2024-01-11T01:32:00;33.35;;;13.40;;
43998;SDS011;51319;52.162;5.302;2024-01-11T01:34:27;33.10;;;12.88;;
43998;SDS011;51319;52.162;5.302;2024-01-11T01:36:55;30.40;;;14.68;;
43998;SDS011;51319;52.162;5.302;2024-01-11T01:39:22;39.90;;;15.70;;
43998;SDS011;51319;52.162;5.302;2024-01-11T01:41:49;33.63;;;14.57;;
43998;SDS011;51319;52.162;5.302;2024-01-11T01:44:16;29.15;;;13.65;;
43998;SDS011;51319;52.162;5.302;2024-01-11T01:46:43;31.92;;;13.60;;
43998;SDS011;51319;52.162;5.302;2024-01-11T01:49:11;31.30;;;13.68;;
43998;SDS011;51319;52.162;5.302;2024-01-11T01:51:39;31.33;;;14.10;;
43998;SDS011;51319;52.162;5.302;2024-01-11T01:54:06;31.15;;;14.77;;
43998;SDS011;51319;52.162;5.302;2024-01-11T01:56:33;32.95;;;14.70;;
43998;SDS011;51319;52.162;5.302;2024-01-11T01:59:01;37.47;;;13.85;;
43998;SDS011;51319;52.162;5.302;2024-01-11T02:01:30;35.97;;;15.43;;
43998;SDS011;51319;52.162;5.302;2024-01-11T02:03:57;31.98;;;14.30;;
43998;SDS011;51319;52.162;5.302;2024-01-11T02:06:25;33.15;;;14.95;;
43998;SDS011;51319;52.162;5.302;2024-01-11T02:08:56;30.60;;;13.98;;
43998;SDS011;51319;52.162;5.302;2024-01-11T02:11:25;34.92;;;16.27;;
43998;SDS011;51319;52.162;5.302;2024-01-11T02:13:56;37.05;;;15.93;;
43998;SDS011;51319;52.162;5.302;2024-01-11T02:16:25;34.60;;;15.98;;
43998;SDS011;51319;52.162;5.302;2024-01-11T02:18:52;32.67;;;15.30;;
43998;SDS011;51319;52.162;5.302;2024-01-11T02:21:20;41.55;;;16.10;;
43998;SDS011;51319;52.162;5.302;2024-01-11T02:23:56;36.08;;;16.00;;
43998;SDS011;51319;52.162;5.302;2024-01-11T02:26:31;41.90;;;16.35;;
43998;SDS011;51319;52.162;5.302;2024-01-11T02:28:59;35.63;;;17.15;;
43998;SDS011;51319;52.162;5.302;2024-01-11T02:31:28;42.75;;;17.00;;
43998;SDS011;51319;52.162;5.302;2024-01-11T02:33:55;39.65;;;16.77;;
43998;SDS011;51319;52.162;5.302;2024-01-11T02:36:22;39.00;;;16.00;;
43998;SDS011;51319;52.162;5.302;2024-01-11T02:38:51;41.38;;;17.67;;
43998;SDS011;51319;52.162;5.302;2024-01-11T02:41:20;41.03;;;18.25;;
43998;SDS011;51319;52.162;5.302;2024-01-11T02:43:49;38.50;;;17.33;;
43998;SDS011;51319;52.162;5.302;2024-01-11T02:46:16;39.78;;;18.02;;
43998;SDS011;51319;52.162;5.302;2024-01-11T02:48:43;40.83;;;18.50;;
43998;SDS011;51319;52.162;5.302;2024-01-11T02:51:11;44.03;;;19.25;;
43998;SDS011;51319;52.162;5.302;2024-01-11T02:53:38;40.15;;;18.73;;
43998;SDS011;51319;52.162;5.302;2024-01-11T02:56:06;45.97;;;19.67;;
43998;SDS011;51319;52.162;5.302;2024-01-11T02:58:33;45.83;;;20.30;;
43998;SDS011;51319;52.162;5.302;2024-01-11T03:01:00;39.60;;;18.73;;
43998;SDS011;51319;52.162;5.302;2024-01-11T03:03:29;52.53;;;22.08;;
43998;SDS011;51319;52.162;5.302;2024-01-11T03:05:56;45.85;;;20.13;;
43998;SDS011;51319;52.162;5.302;2024-01-11T03:08:23;45.85;;;20.48;;
43998;SDS011;51319;52.162;5.302;2024-01-11T03:10:53;47.70;;;20.40;;
43998;SDS011;51319;52.162;5.302;2024-01-11T03:13:20;52.70;;;23.40;;
43998;SDS011;51319;52.162;5.302;2024-01-11T03:15:47;47.95;;;21.13;;
43998;SDS011;51319;52.162;5.302;2024-01-11T03:18:14;52.33;;;22.27;;
43998;SDS011;51319;52.162;5.302;2024-01-11T03:20:42;49.92;;;21.67;;
43998;SDS011;51319;52.162;5.302;2024-01-11T03:23:09;53.55;;;24.65;;
43998;SDS011;51319;52.162;5.302;2024-01-11T03:25:36;54.38;;;25.92;;
43998;SDS011;51319;52.162;5.302;2024-01-11T03:28:03;60.42;;;26.27;;
43998;SDS011;51319;52.162;5.302;2024-01-11T03:30:30;57.03;;;23.77;;
43998;SDS011;51319;52.162;5.302;2024-01-11T03:32:57;58.60;;;25.42;;
43998;SDS011;51319;52.162;5.302;2024-01-11T03:35:24;57.13;;;25.58;;
43998;SDS011;51319;52.162;5.302;2024-01-11T03:37:51;64.50;;;26.80;;
43998;SDS011;51319;52.162;5.302;2024-01-11T03:40:18;59.67;;;26.00;;
43998;SDS011;51319;52.162;5.302;2024-01-11T03:42:45;67.60;;;26.98;;
43998;SDS011;51319;52.162;5.302;2024-01-11T03:45:12;61.83;;;27.38;;
43998;SDS011;51319;52.162;5.302;2024-01-11T03:47:39;69.50;;;26.95;;
43998;SDS011;51319;52.162;5.302;2024-01-11T03:50:06;58.03;;;25.73;;
43998;SDS011;51319;52.162;5.302;2024-01-11T03:52:34;61.78;;;27.92;;
43998;SDS011;51319;52.162;5.302;2024-01-11T03:55:01;63.42;;;27.38;;
43998;SDS011;51319;52.162;5.302;2024-01-11T03:57:28;65.72;;;26.92;;
43998;SDS011;51319;52.162;5.302;2024-01-11T03:59:56;60.03;;;27.02;;
43998;SDS011;51319;52.162;5.302;2024-01-11T04:02:23;63.45;;;26.40;;
43998;SDS011;51319;52.162;5.302;2024-01-11T04:04:50;60.72;;;27.00;;
43998;SDS011;51319;52.162;5.302;2024-01-11T04:07:17;66.97;;;27.70;;
43998;SDS011;51319;52.162;5.302;2024-01-11T04:09:44;70.82;;;28.10;;
43998;SDS011;51319;52.162;5.302;2024-01-11T04:12:11;71.40;;;28.75;;
43998;SDS011;51319;52.162;5.302;2024-01-11T04:14:39;70.13;;;30.73;;
43998;SDS011;51319;52.162;5.302;2024-01-11T04:17:09;53.65;;;21.55;;
43998;SDS011;51319;52.162;5.302;2024-01-11T04:19:36;65.75;;;29.20;;
43998;SDS011;51319;52.162;5.302;2024-01-11T04:22:04;72.03;;;30.60;;
43998;SDS011;51319;52.162;5.302;2024-01-11T04:24:31;74.05;;;31.40;;
43998;SDS011;51319;52.162;5.302;2024-01-11T04:26:58;72.25;;;29.23;;
43998;SDS011;51319;52.162;5.302;2024-01-11T04:29:25;75.95;;;33.28;;
43998;SDS011;51319;52.162;5.302;2024-01-11T04:31:52;76.13;;;32.47;;
43998;SDS011;51319;52.162;5.302;2024-01-11T04:34:20;72.65;;;30.33;;
43998;SDS011;51319;52.162;5.302;2024-01-11T04:36:47;73.57;;;30.80;;
43998;SDS011;51319;52.162;5.302;2024-01-11T04:39:14;72.78;;;31.52;;
43998;SDS011;51319;52.162;5.302;2024-01-11T04:41:44;78.68;;;32.17;;
43998;SDS011;51319;52.162;5.302;2024-01-11T04:44:12;75.28;;;32.53;;
43998;SDS011;51319;52.162;5.302;2024-01-11T04:46:40;74.32;;;34.00;;
43998;SDS011;51319;52.162;5.302;2024-01-11T04:49:10;73.65;;;33.40;;
43998;SDS011;51319;52.162;5.302;2024-01-11T04:51:38;66.85;;;29.35;;
43998;SDS011;51319;52.162;5.302;2024-01-11T04:54:05;70.80;;;30.05;;
43998;SDS011;51319;52.162;5.302;2024-01-11T04:56:33;75.80;;;32.50;;
43998;SDS011;51319;52.162;5.302;2024-01-11T04:59:00;79.55;;;32.53;;
43998;SDS011;51319;52.162;5.302;2024-01-11T05:01:27;80.30;;;34.67;;
43998;SDS011;51319;52.162;5.302;2024-01-11T05:03:55;79.22;;;33.72;;
43998;SDS011;51319;52.162;5.302;2024-01-11T05:06:22;79.35;;;34.95;;
43998;SDS011;51319;52.162;5.302;2024-01-11T05:08:51;83.43;;;34.20;;
43998;SDS011;51319;52.162;5.302;2024-01-11T05:11:19;81.45;;;32.95;;
43998;SDS011;51319;52.162;5.302;2024-01-11T05:13:51;79.88;;;35.05;;
43998;SDS011;51319;52.162;5.302;2024-01-11T05:16:19;81.63;;;33.15;;
43998;SDS011;51319;52.162;5.302;2024-01-11T05:18:47;78.55;;;31.45;;
43998;SDS011;51319;52.162;5.302;2024-01-11T05:21:16;79.57;;;33.42;;
43998;SDS011;51319;52.162;5.302;2024-01-11T05:23:44;74.25;;;32.63;;
43998;SDS011;51319;52.162;5.302;2024-01-11T05:26:12;90.90;;;33.55;;
43998;SDS011;51319;52.162;5.302;2024-01-11T05:28:41;85.05;;;33.08;;
43998;SDS011;51319;52.162;5.302;2024-01-11T05:31:12;77.53;;;31.67;;
43998;SDS011;51319;52.162;5.302;2024-01-11T05:34:01;76.78;;;33.25;;
43998;SDS011;51319;52.162;5.302;2024-01-11T05:36:29;78.40;;;32.92;;
43998;SDS011;51319;52.162;5.302;2024-01-11T05:38:56;74.43;;;30.77;;
43998;SDS011;51319;52.162;5.302;2024-01-11T05:41:23;72.40;;;31.83;;
43998;SDS011;51319;52.162;5.302;2024-01-11T05:43:50;78.93;;;33.70;;
43998;SDS011;51319;52.162;5.302;2024-01-11T05:46:17;69.28;;;30.98;;
43998;SDS011;51319;52.162;5.302;2024-01-11T05:48:45;77.35;;;32.67;;
43998;SDS011;51319;52.162;5.302;2024-01-11T05:51:13;77.70;;;32.28;;
43998;SDS011;51319;52.162;5.302;2024-01-11T05:53:40;125.45;;;56.42;;
43998;SDS011;51319;52.162;5.302;2024-01-11T05:56:07;97.32;;;41.83;;
43998;SDS011;51319;52.162;5.302;2024-01-11T05:58:36;83.95;;;34.10;;
43998;SDS011;51319;52.162;5.302;2024-01-11T06:01:07;76.18;;;32.55;;
43998;SDS011;51319;52.162;5.302;2024-01-11T06:03:34;78.50;;;33.22;;
43998;SDS011;51319;52.162;5.302;2024-01-11T06:06:02;75.35;;;31.80;;
43998;SDS011;51319;52.162;5.302;2024-01-11T06:08:30;79.30;;;33.90;;
43998;SDS011;51319;52.162;5.302;2024-01-11T06:10:58;78.35;;;33.33;;
43998;SDS011;51319;52.162;5.302;2024-01-11T06:13:25;76.13;;;31.60;;
43998;SDS011;51319;52.162;5.302;2024-01-11T06:15:54;79.15;;;33.15;;
43998;SDS011;51319;52.162;5.302;2024-01-11T06:18:21;80.25;;;33.83;;
43998;SDS011;51319;52.162;5.302;2024-01-11T06:20:48;82.07;;;37.40;;
43998;SDS011;51319;52.162;5.302;2024-01-11T06:23:15;86.57;;;35.85;;
43998;SDS011;51319;52.162;5.302;2024-01-11T06:25:43;86.80;;;35.80;;
43998;SDS011;51319;52.162;5.302;2024-01-11T06:28:12;94.53;;;37.00;;
43998;SDS011;51319;52.162;5.302;2024-01-11T06:30:40;86.43;;;35.80;;
43998;SDS011;51319;52.162;5.302;2024-01-11T06:33:07;89.13;;;35.92;;
43998;SDS011;51319;52.162;5.302;2024-01-11T06:35:34;82.65;;;35.40;;
43998;SDS011;51319;52.162;5.302;2024-01-11T06:38:02;91.35;;;36.10;;
43998;SDS011;51319;52.162;5.302;2024-01-11T06:40:29;101.95;;;37.28;;
43998;SDS011;51319;52.162;5.302;2024-01-11T06:42:58;98.95;;;38.22;;
43998;SDS011;51319;52.162;5.302;2024-01-11T06:45:24;98.28;;;38.17;;
43998;SDS011;51319;52.162;5.302;2024-01-11T06:47:51;95.55;;;37.88;;
43998;SDS011;51319;52.162;5.302;2024-01-11T06:50:19;99.85;;;36.85;;
43998;SDS011;51319;52.162;5.302;2024-01-11T06:52:47;85.43;;;37.08;;
43998;SDS011;51319;52.162;5.302;2024-01-11T06:55:17;94.05;;;39.30;;
43998;SDS011;51319;52.162;5.302;2024-01-11T06:57:46;103.32;;;40.58;;
43998;SDS011;51319;52.162;5.302;2024-01-11T07:00:14;97.88;;;39.50;;
43998;SDS011;51319;52.162;5.302;2024-01-11T07:02:43;98.80;;;40.10;;
43998;SDS011;51319;52.162;5.302;2024-01-11T07:05:10;103.25;;;40.20;;
43998;SDS011;51319;52.162;5.302;2024-01-11T07:07:38;92.57;;;37.60;;
43998;SDS011;51319;52.162;5.302;2024-01-11T07:10:06;92.45;;;39.22;;
43998;SDS011;51319;52.162;5.302;2024-01-11T07:12:35;99.10;;;38.83;;
43998;SDS011;51319;52.162;5.302;2024-01-11T07:15:06;93.80;;;37.83;;
43998;SDS011;51319;52.162;5.302;2024-01-11T07:17:43;88.20;;;37.33;;
43998;SDS011;51319;52.162;5.302;2024-01-11T07:20:28;88.45;;;36.38;;
43998;SDS011;51319;52.162;5.302;2024-01-11T07:23:10;86.53;;;35.08;;
43998;SDS011;51319;52.162;5.302;2024-01-11T07:25:42;82.40;;;36.60;;
43998;SDS011;51319;52.162;5.302;2024-01-11T07:28:12;86.38;;;37.55;;
43998;SDS011;51319;52.162;5.302;2024-01-11T07:30:39;83.28;;;35.13;;
43998;SDS011;51319;52.162;5.302;2024-01-11T07:33:07;93.90;;;40.15;;
43998;SDS011;51319;52.162;5.302;2024-01-11T07:35:36;88.40;;;37.13;;
43998;SDS011;51319;52.162;5.302;2024-01-11T07:38:03;86.65;;;37.15;;
43998;SDS011;51319;52.162;5.302;2024-01-11T07:40:30;97.25;;;38.25;;
43998;SDS011;51319;52.162;5.302;2024-01-11T07:43:01;90.22;;;39.90;;
43998;SDS011;51319;52.162;5.302;2024-01-11T07:45:30;86.70;;;35.63;;
43998;SDS011;51319;52.162;5.302;2024-01-11T07:47:57;97.85;;;39.50;;
43998;SDS011;51319;52.162;5.302;2024-01-11T07:50:24;86.93;;;37.80;;
43998;SDS011;51319;52.162;5.302;2024-01-11T07:52:51;93.28;;;38.80;;
43998;SDS011;51319;52.162;5.302;2024-01-11T07:55:18;98.18;;;39.65;;
43998;SDS011;51319;52.162;5.302;2024-01-11T07:57:50;102.35;;;40.33;;
43998;SDS011;51319;52.162;5.302;2024-01-11T08:00:20;89.28;;;38.45;;
43998;SDS011;51319;52.162;5.302;2024-01-11T08:02:49;95.55;;;40.65;;
43998;SDS011;51319;52.162;5.302;2024-01-11T08:05:19;93.40;;;39.25;;
43998;SDS011;51319;52.162;5.302;2024-01-11T08:07:47;96.43;;;41.67;;
43998;SDS011;51319;52.162;5.302;2024-01-11T08:10:14;99.95;;;40.20;;
43998;SDS011;51319;52.162;5.302;2024-01-11T08:12:41;96.03;;;39.95;;
43998;SDS011;51319;52.162;5.302;2024-01-11T08:15:08;94.07;;;39.08;;
43998;SDS011;51319;52.162;5.302;2024-01-11T08:17:43;90.30;;;38.45;;
43998;SDS011;51319;52.162;5.302;2024-01-11T08:20:14;93.55;;;39.20;;
43998;SDS011;51319;52.162;5.302;2024-01-11T08:22:43;95.88;;;41.97;;
43998;SDS011;51319;52.162;5.302;2024-01-11T08:25:12;89.63;;;40.42;;
43998;SDS011;51319;52.162;5.302;2024-01-11T08:27:39;88.88;;;40.63;;
43998;SDS011;51319;52.162;5.302;2024-01-11T08:30:07;83.63;;;37.75;;
43998;SDS011;51319;52.162;5.302;2024-01-11T08:32:35;87.07;;;40.03;;
43998;SDS011;51319;52.162;5.302;2024-01-11T08:35:07;83.95;;;38.97;;
43998;SDS011;51319;52.162;5.302;2024-01-11T08:37:37;77.57;;;38.08;;
43998;SDS011;51319;52.162;5.302;2024-01-11T08:40:05;83.97;;;39.10;;
43998;SDS011;51319;52.162;5.302;2024-01-11T08:42:33;80.60;;;37.88;;
43998;SDS011;51319;52.162;5.302;2024-01-11T08:45:00;78.75;;;37.45;;
43998;SDS011;51319;52.162;5.302;2024-01-11T08:47:33;84.93;;;37.58;;
43998;SDS011;51319;52.162;5.302;2024-01-11T08:50:02;81.20;;;37.53;;
43998;SDS011;51319;52.162;5.302;2024-01-11T08:52:32;78.93;;;37.23;;
43998;SDS011;51319;52.162;5.302;2024-01-11T08:55:00;80.32;;;37.10;;
43998;SDS011;51319;52.162;5.302;2024-01-11T08:57:27;83.53;;;39.70;;
43998;SDS011;51319;52.162;5.302;2024-01-11T08:59:54;80.15;;;37.13;;
43998;SDS011;51319;52.162;5.302;2024-01-11T09:02:22;79.40;;;37.35;;
43998;SDS011;51319;52.162;5.302;2024-01-11T09:04:52;84.10;;;39.65;;
43998;SDS011;51319;52.162;5.302;2024-01-11T09:07:20;75.63;;;38.03;;
43998;SDS011;51319;52.162;5.302;2024-01-11T09:09:47;74.82;;;36.30;;
43998;SDS011;51319;52.162;5.302;2024-01-11T09:12:22;75.40;;;35.35;;
43998;SDS011;51319;52.162;5.302;2024-01-11T09:14:51;70.75;;;34.45;;
43998;SDS011;51319;52.162;5.302;2024-01-11T09:17:20;67.53;;;33.35;;
43998;SDS011;51319;52.162;5.302;2024-01-11T09:19:48;73.88;;;34.83;;
43998;SDS011;51319;52.162;5.302;2024-01-11T09:22:15;72.80;;;34.15;;
43998;SDS011;51319;52.162;5.302;2024-01-11T09:24:43;68.07;;;33.58;;
43998;SDS011;51319;52.162;5.302;2024-01-11T09:27:13;67.75;;;33.13;;
43998;SDS011;51319;52.162;5.302;2024-01-11T09:29:44;70.13;;;33.57;;
43998;SDS011;51319;52.162;5.302;2024-01-11T09:32:12;69.57;;;34.53;;
43998;SDS011;51319;52.162;5.302;2024-01-11T09:34:39;67.88;;;32.58;;
43998;SDS011;51319;52.162;5.302;2024-01-11T09:37:06;67.65;;;32.38;;
43998;SDS011;51319;52.162;5.302;2024-01-11T09:39:33;63.30;;;31.27;;
43998;SDS011;51319;52.162;5.302;2024-01-11T09:44:35;65.97;;;31.33;;
43998;SDS011;51319;52.162;5.302;2024-01-11T09:47:07;65.90;;;31.85;;
43998;SDS011;51319;52.162;5.302;2024-01-11T09:49:41;70.93;;;33.28;;
43998;SDS011;51319;52.162;5.302;2024-01-11T09:52:09;71.18;;;32.17;;
43998;SDS011;51319;52.162;5.302;2024-01-11T09:54:39;69.07;;;30.58;;
43998;SDS011;51319;52.162;5.302;2024-01-11T09:57:07;67.60;;;31.48;;
43998;SDS011;51319;52.162;5.302;2024-01-11T09:59:36;70.38;;;32.95;;
43998;SDS011;51319;52.162;5.302;2024-01-11T10:02:05;70.43;;;33.08;;
43998;SDS011;51319;52.162;5.302;2024-01-11T10:04:38;71.05;;;31.00;;
43998;SDS011;51319;52.162;5.302;2024-01-11T10:07:08;68.05;;;31.00;;
43998;SDS011;51319;52.162;5.302;2024-01-11T10:09:38;68.78;;;32.78;;
43998;SDS011;51319;52.162;5.302;2024-01-11T10:12:05;76.22;;;33.72;;
43998;SDS011;51319;52.162;5.302;2024-01-11T10:14:32;74.80;;;31.65;;
43998;SDS011;51319;52.162;5.302;2024-01-11T10:16:59;71.70;;;31.17;;
43998;SDS011;51319;52.162;5.302;2024-01-11T10:19:29;73.75;;;30.98;;
43998;SDS011;51319;52.162;5.302;2024-01-11T10:21:58;76.78;;;32.33;;
43998;SDS011;51319;52.162;5.302;2024-01-11T10:25:14;71.78;;;30.40;;
43998;SDS011;51319;52.162;5.302;2024-01-11T10:27:48;83.10;;;31.30;;
43998;SDS011;51319;52.162;5.302;2024-01-11T10:30:16;73.30;;;31.88;;
43998;SDS011;51319;52.162;5.302;2024-01-11T10:32:49;78.15;;;31.55;;
43998;SDS011;51319;52.162;5.302;2024-01-11T10:35:18;79.82;;;32.42;;
43998;SDS011;51319;52.162;5.302;2024-01-11T10:37:47;75.95;;;33.15;;
43998;SDS011;51319;52.162;5.302;2024-01-11T10:40:20;79.50;;;33.58;;
43998;SDS011;51319;52.162;5.302;2024-01-11T10:42:52;76.03;;;33.80;;
43998;SDS011;51319;52.162;5.302;2024-01-11T10:45:19;78.03;;;36.28;;
43998;SDS011;51319;52.162;5.302;2024-01-11T10:47:54;79.32;;;34.38;;
43998;SDS011;51319;52.162;5.302;2024-01-11T10:50:30;84.20;;;36.45;;
43998;SDS011;51319;52.162;5.302;2024-01-11T10:56:06;89.65;;;39.95;;
43998;SDS011;51319;52.162;5.302;2024-01-11T10:58:35;83.70;;;33.72;;
43998;SDS011;51319;52.162;5.302;2024-01-11T11:01:02;82.43;;;37.03;;
43998;SDS011;51319;52.162;5.302;2024-01-11T11:03:32;82.10;;;35.03;;
43998;SDS011;51319;52.162;5.302;2024-01-11T11:06:01;94.82;;;39.20;;
43998;SDS011;51319;52.162;5.302;2024-01-11T11:08:28;91.55;;;37.22;;
43998;SDS011;51319;52.162;5.302;2024-01-11T11:10:57;75.43;;;32.97;;
43998;SDS011;51319;52.162;5.302;2024-01-11T11:13:27;86.60;;;37.75;;
43998;SDS011;51319;52.162;5.302;2024-01-11T11:15:54;96.95;;;37.25;;
43998;SDS011;51319;52.162;5.302;2024-01-11T11:18:27;80.70;;;33.25;;
43998;SDS011;51319;52.162;5.302;2024-01-11T11:20:54;81.88;;;32.78;;
43998;SDS011;51319;52.162;5.302;2024-01-11T11:23:21;90.40;;;38.28;;
43998;SDS011;51319;52.162;5.302;2024-01-11T11:25:49;91.32;;;38.78;;
43998;SDS011;51319;52.162;5.302;2024-01-11T11:28:17;75.13;;;33.60;;
43998;SDS011;51319;52.162;5.302;2024-01-11T11:30:48;98.93;;;39.33;;
43998;SDS011;51319;52.162;5.302;2024-01-11T11:33:22;79.97;;;34.15;;
43998;SDS011;51319;52.162;5.302;2024-01-11T11:35:52;86.05;;;35.83;;
43998;SDS011;51319;52.162;5.302;2024-01-11T11:38:21;82.18;;;33.80;;
43998;SDS011;51319;52.162;5.302;2024-01-11T11:40:51;71.28;;;32.67;;
43998;SDS011;51319;52.162;5.302;2024-01-11T11:43:22;79.65;;;33.50;;
43998;SDS011;51319;52.162;5.302;2024-01-11T11:45:52;72.45;;;31.48;;
43998;SDS011;51319;52.162;5.302;2024-01-11T11:51:05;66.40;;;29.45;;
43998;SDS011;51319;52.162;5.302;2024-01-11T11:53:36;63.67;;;28.08;;
43998;SDS011;51319;52.162;5.302;2024-01-11T11:56:05;67.53;;;29.15;;
43998;SDS011;51319;52.162;5.302;2024-01-11T11:58:36;69.32;;;30.10;;
43998;SDS011;51319;52.162;5.302;2024-01-11T12:01:03;61.47;;;27.35;;
43998;SDS011;51319;52.162;5.302;2024-01-11T12:03:31;66.75;;;29.50;;
43998;SDS011;51319;52.162;5.302;2024-01-11T12:06:00;65.55;;;28.38;;
43998;SDS011;51319;52.162;5.302;2024-01-11T12:08:27;62.35;;;28.10;;
43998;SDS011;51319;52.162;5.302;2024-01-11T12:10:56;60.08;;;27.88;;
43998;SDS011;51319;52.162;5.302;2024-01-11T12:13:24;60.80;;;28.17;;
43998;SDS011;51319;52.162;5.302;2024-01-11T12:15:55;57.45;;;26.92;;
43998;SDS011;51319;52.162;5.302;2024-01-11T12:18:25;57.95;;;26.38;;
43998;SDS011;51319;52.162;5.302;2024-01-11T12:20:52;65.25;;;25.65;;
43998;SDS011;51319;52.162;5.302;2024-01-11T12:23:21;54.55;;;25.73;;
43998;SDS011;51319;52.162;5.302;2024-01-11T12:25:49;53.70;;;25.55;;
43998;SDS011;51319;52.162;5.302;2024-01-11T12:28:16;53.70;;;25.58;;
43998;SDS011;51319;52.162;5.302;2024-01-11T12:30:44;52.05;;;23.70;;
43998;SDS011;51319;52.162;5.302;2024-01-11T12:33:12;51.55;;;24.58;;
43998;SDS011;51319;52.162;5.302;2024-01-11T12:38:28;44.33;;;22.15;;
43998;SDS011;51319;52.162;5.302;2024-01-11T12:40:57;43.75;;;22.80;;
43998;SDS011;51319;52.162;5.302;2024-01-11T12:43:26;46.78;;;22.60;;
43998;SDS011;51319;52.162;5.302;2024-01-11T12:45:55;48.95;;;21.80;;
43998;SDS011;51319;52.162;5.302;2024-01-11T12:48:22;45.60;;;22.48;;
43998;SDS011;51319;52.162;5.302;2024-01-11T12:50:51;45.85;;;22.60;;
43998;SDS011;51319;52.162;5.302;2024-01-11T12:53:39;43.08;;;21.88;;
43998;SDS011;51319;52.162;5.302;2024-01-11T12:56:08;45.97;;;21.25;;
43998;SDS011;51319;52.162;5.302;2024-01-11T12:58:37;48.65;;;23.30;;
43998;SDS011;51319;52.162;5.302;2024-01-11T13:01:05;47.15;;;24.20;;
43998;SDS011;51319;52.162;5.302;2024-01-11T13:03:40;49.33;;;25.00;;
43998;SDS011;51319;52.162;5.302;2024-01-11T13:06:15;43.22;;;20.33;;
43998;SDS011;51319;52.162;5.302;2024-01-11T13:08:46;43.97;;;21.17;;
43998;SDS011;51319;52.162;5.302;2024-01-11T13:11:14;37.70;;;20.33;;
43998;SDS011;51319;52.162;5.302;2024-01-11T13:13:44;40.83;;;19.25;;
43998;SDS011;51319;52.162;5.302;2024-01-11T13:16:13;43.65;;;20.10;;
43998;SDS011;51319;52.162;5.302;2024-01-11T13:18:41;39.47;;;19.88;;
43998;SDS011;51319;52.162;5.302;2024-01-11T13:21:09;44.25;;;19.65;;
43998;SDS011;51319;52.162;5.302;2024-01-11T13:23:36;36.17;;;19.23;;
43998;SDS011;51319;52.162;5.302;2024-01-11T13:26:05;33.65;;;16.88;;
43998;SDS011;51319;52.162;5.302;2024-01-11T13:28:33;36.75;;;17.88;;
43998;SDS011;51319;52.162;5.302;2024-01-11T13:31:01;33.55;;;17.77;;
43998;SDS011;51319;52.162;5.302;2024-01-11T13:33:32;31.50;;;17.30;;
43998;SDS011;51319;52.162;5.302;2024-01-11T13:35:59;35.30;;;17.70;;
43998;SDS011;51319;52.162;5.302;2024-01-11T13:38:26;40.08;;;19.02;;
43998;SDS011;51319;52.162;5.302;2024-01-11T13:40:54;42.30;;;19.55;;
43998;SDS011;51319;52.162;5.302;2024-01-11T13:43:21;34.20;;;17.92;;
43998;SDS011;51319;52.162;5.302;2024-01-11T13:45:48;36.33;;;18.77;;
43998;SDS011;51319;52.162;5.302;2024-01-11T13:48:15;33.45;;;17.67;;
43998;SDS011;51319;52.162;5.302;2024-01-11T13:50:44;37.67;;;18.83;;
43998;SDS011;51319;52.162;5.302;2024-01-11T13:53:11;33.05;;;16.42;;
43998;SDS011;51319;52.162;5.302;2024-01-11T13:55:39;44.08;;;17.10;;
43998;SDS011;51319;52.162;5.302;2024-01-11T13:58:06;34.70;;;17.55;;
43998;SDS011;51319;52.162;5.302;2024-01-11T14:00:34;38.17;;;17.45;;
43998;SDS011;51319;52.162;5.302;2024-01-11T14:03:02;31.70;;;17.42;;
43998;SDS011;51319;52.162;5.302;2024-01-11T14:05:33;37.20;;;18.75;;
43998;SDS011;51319;52.162;5.302;2024-01-11T14:08:01;31.60;;;16.27;;
43998;SDS011;51319;52.162;5.302;2024-01-11T14:10:33;35.83;;;16.60;;
43998;SDS011;51319;52.162;5.302;2024-01-11T14:13:01;40.92;;;18.60;;
43998;SDS011;51319;52.162;5.302;2024-01-11T14:15:29;32.63;;;16.92;;
43998;SDS011;51319;52.162;5.302;2024-01-11T14:17:59;30.05;;;15.32;;
43998;SDS011;51319;52.162;5.302;2024-01-11T14:20:27;35.33;;;18.27;;
43998;SDS011;51319;52.162;5.302;2024-01-11T14:22:55;38.55;;;17.63;;
43998;SDS011;51319;52.162;5.302;2024-01-11T14:25:23;36.50;;;19.23;;
43998;SDS011;51319;52.162;5.302;2024-01-11T14:27:53;31.15;;;17.17;;
43998;SDS011;51319;52.162;5.302;2024-01-11T14:30:20;32.58;;;17.60;;
43998;SDS011;51319;52.162;5.302;2024-01-11T14:32:49;35.97;;;18.67;;
43998;SDS011;51319;52.162;5.302;2024-01-11T14:35:17;37.63;;;19.27;;
43998;SDS011;51319;52.162;5.302;2024-01-11T14:37:45;40.50;;;19.33;;
43998;SDS011;51319;52.162;5.302;2024-01-11T14:40:12;37.15;;;18.40;;